Upstream stations:
Downstream station:
SHEF ID: OSOK1 Oswego hwy 160
STATION TYPE:
PRECIP STAGE RIV-FLOW VOLTAGE BAT-LOAD
in ft cfs volt volt
Ccp-Rev Ccp-Rev Ccp-Rev Ccp-Rev Ccp-Rev
(US/Central)
08/17 00:00 0.15 8.54 187 12.65 12.49
08/17 01:00 0.03 8.58 197 12.65 12.49
08/17 02:00 0.00 8.59 200 12.65 12.49
08/17 03:00 0.00 8.60 203 12.65 12.49
08/17 04:00 0.00 8.60 203 12.65 12.49
08/17 05:00 0.00 8.63 210 12.57 12.41
08/17 06:00 0.00 8.64 213 12.57 12.41
08/17 07:00 0.00 8.63 210 12.57 12.41
08/17 08:00 0.00 8.62 208 12.57 12.41
08/17 09:00 0.00 8.61 205 12.57 12.41
08/17 10:00 0.00 8.59 200 12.65 12.49
08/17 11:00 0.00 8.56 192 12.65 12.57
08/17 12:00 0.00 8.57 195 12.81 12.65
08/17 13:00 0.00 8.54 187 12.89 12.65
08/17 14:00 0.00 8.53 185 13.29 12.97
08/17 15:00 0.00 8.52 182 13.60 13.13
08/17 16:00 0.00 8.50 177 14.00 12.89
08/17 17:00 0.00 8.50 177 13.76 12.81
08/17 18:00 0.00 8.47 170 13.44 12.73
08/17 19:00 0.00 8.47 170 12.81 12.65
08/17 20:00 0.00 8.46 167 12.65 12.57
08/17 21:00 0.00 8.46 167 12.65 12.57
08/17 22:00 0.00 8.45 165 12.65 12.57
08/17 23:00 ---- ---- ---- ---- ----